Terminal Aerodrome Forecast
Issued by NWS Shreveport, LA

Home | Current Version | Previous Version | Text Only | Print | Product List | Glossary On
Versions: 1 2 3 4 5 6 7 8 9 10 11 12 13 14 15 16
000
FTUS44 KSHV 251700
TAFLFK
TAF
KLFK 251726Z 2518/2618 VRB04KT P6SM BKN250
     FM252000 VRB04KT P6SM SCT250
     FM260000 VRB03KT P6SM SKC
     FM261500 23008KT P6SM SKC=

USA.gov is the U.S. government's official web portal to all federal, state and local government web resources and services.